Time;durP1;ratioP1;P1;durP2;ratioP2;P2;SDS_P1;SDS_P2;PMS_P1;PMS_P2;Temp;Humidity;BMP_temperature;BMP_pressure;BME280_temperature;BME280_humidity;BME280_pressure;Samples;Min_cycle;Max_cycle;Signal;HPM_P1;HPM_P2
2023/02/03 00:02:14;;;;;;;15.32;8.70;;;;;;;8.17;100.00;101897.78;4989823;28;20138;-79
2023/02/03 00:04:40;;;;;;;14.25;9.50;;;;;;;8.16;100.00;101890.91;4988129;28;20082;-79
2023/02/03 00:07:09;;;;;;;17.00;9.75;;;;;;;8.24;100.00;101893.78;4990760;28;20050;-81
2023/02/03 00:09:35;;;;;;;20.38;9.35;;;;;;;8.25;100.00;101872.00;4992188;28;20373;-79
2023/02/03 00:12:02;;;;;;;17.55;9.57;;;;;;;8.27;100.00;101875.31;4985165;28;20214;-80
2023/02/03 00:14:32;;;;;;;17.40;8.82;;;;;;;8.27;100.00;101859.66;4981561;28;20051;-79
2023/02/03 00:16:59;;;;;;;18.75;9.05;;;;;;;8.26;100.00;101857.19;4989171;28;20050;-80
2023/02/03 00:19:25;;;;;;;13.60;8.60;;;;;;;8.27;100.00;101851.84;4992330;28;20137;-80
2023/02/03 00:21:52;;;;;;;16.27;8.73;;;;;;;8.27;100.00;101859.66;4982770;28;20055;-79
2023/02/03 00:24:19;;;;;;;15.10;9.27;;;;;;;8.29;100.00;101852.56;4986740;28;20137;-80
2023/02/03 00:26:47;;;;;;;14.68;8.75;;;;;;;8.26;100.00;101837.16;5000928;28;20056;-79
2023/02/03 00:29:14;;;;;;;15.38;10.32;;;;;;;8.26;100.00;101833.72;4994058;28;20126;-80
2023/02/03 00:31:42;;;;;;;15.48;8.38;;;;;;;8.26;100.00;101825.88;4989260;28;20051;-78
2023/02/03 00:34:09;;;;;;;13.30;8.75;;;;;;;8.22;100.00;101824.44;5007715;28;20081;-80
2023/02/03 00:36:36;;;;;;;16.85;8.43;;;;;;;8.25;100.00;101830.25;4994376;28;20054;-80
2023/02/03 00:39:03;;;;;;;16.10;8.80;;;;;;;8.20;100.00;101832.38;4997768;28;20054;-81
2023/02/03 00:41:31;;;;;;;14.63;8.15;;;;;;;8.25;100.00;101832.88;5002631;28;20073;-79
2023/02/03 00:43:58;;;;;;;18.60;8.40;;;;;;;8.25;100.00;101837.25;4999197;28;20146;-78
2023/02/03 00:46:24;;;;;;;16.80;8.13;;;;;;;8.25;100.00;101825.06;4997627;28;20061;-79
2023/02/03 00:48:52;;;;;;;16.05;8.25;;;;;;;8.26;100.00;101833.72;5002682;28;20054;-79
2023/02/03 00:51:20;;;;;;;19.10;9.35;;;;;;;8.23;100.00;101821.72;5002925;28;20150;-80
2023/02/03 00:53:47;;;;;;;18.00;8.20;;;;;;;8.22;100.00;101807.03;4988337;28;20113;-79
2023/02/03 00:56:14;;;;;;;15.80;7.72;;;;;;;8.19;100.00;101802.03;4981295;28;20050;-81
2023/02/03 00:58:41;;;;;;;15.52;7.95;;;;;;;8.22;100.00;101809.63;4993533;28;20050;-78
2023/02/03 01:01:08;;;;;;;19.63;7.97;;;;;;;8.22;100.00;101825.28;5000551;28;20119;-79
2023/02/03 01:03:34;;;;;;;12.07;7.13;;;;;;;8.20;100.00;101821.94;4997511;28;20101;-79
2023/02/03 01:06:11;;;;;;;13.75;8.05;;;;;;;8.17;100.00;101821.34;4995010;28;20134;-80
2023/02/03 01:08:38;;;;;;;15.05;7.00;;;;;;;8.19;100.00;101833.31;4992141;28;20129;-80
2023/02/03 01:11:08;;;;;;;10.65;7.68;;;;;;;8.20;100.00;101827.16;4992284;28;20491;-79
2023/02/03 01:13:35;;;;;;;15.27;7.22;;;;;;;8.20;100.00;101832.38;4982338;28;20514;-79
2023/02/03 01:16:02;;;;;;;11.43;6.78;;;;;;;8.26;100.00;101834.53;4992966;28;20078;-79
2023/02/03 01:18:28;;;;;;;17.05;7.35;;;;;;;8.27;100.00;101833.59;4996738;28;20424;-79
2023/02/03 01:21:31;;;;;;;14.10;7.25;;;;;;;8.18;100.00;101828.22;5028108;23;20132;-79
2023/02/03 01:24:03;;;;;;;12.83;6.93;;;;;;;8.06;100.00;101819.50;4999950;28;20065;-79
2023/02/03 01:26:30;;;;;;;14.85;7.00;;;;;;;8.30;100.00;101866.44;5003481;28;20294;-80
2023/02/03 01:29:14;;;;;;;14.18;7.47;;;;;;;8.20;100.00;101853.22;5001396;28;20042;-80
2023/02/03 01:31:49;;;;;;;12.45;7.22;;;;;;;8.30;100.00;101856.00;4985338;28;20542;-79
2023/02/03 01:34:29;;;;;;;14.30;6.88;;;;;;;8.18;100.00;101843.84;4991517;28;20487;-80
2023/02/03 01:36:59;;;;;;;13.88;6.85;;;;;;;8.11;100.00;101827.81;4987848;28;20054;-79
2023/02/03 01:39:40;;;;;;;13.43;7.10;;;;;;;8.34;100.00;101862.69;4995014;28;20153;-79
2023/02/03 01:42:18;;;;;;;16.70;7.22;;;;;;;8.26;100.00;101863.22;4981179;28;20058;-79
2023/02/03 01:44:50;;;;;;;12.82;7.15;;;;;;;8.25;100.00;101866.78;4989048;28;20411;-80
2023/02/03 01:47:33;;;;;;;18.50;6.95;;;;;;;8.31;100.00;101881.97;4994983;28;20081;-79
2023/02/03 01:50:12;;;;;;;14.02;7.80;;;;;;;8.23;100.00;101871.25;4990270;28;20157;-79
2023/02/03 01:52:45;;;;;;;13.88;6.47;;;;;;;8.08;100.00;101859.31;4994524;28;20081;-79
2023/02/03 01:55:20;;;;;;;14.70;6.90;;;;;;;8.19;100.00;101862.00;4986332;28;20112;-79
2023/02/03 01:58:04;;;;;;;10.70;6.65;;;;;;;8.26;100.00;101881.47;4987540;28;20050;-79
2023/02/03 02:00:31;;;;;;;12.05;6.47;;;;;;;8.12;100.00;101850.34;4992205;28;20061;-80
2023/02/03 02:03:04;;;;;;;11.35;6.43;;;;;;;8.29;100.00;101877.81;4979277;28;20061;-81
2023/02/03 02:05:35;;;;;;;16.88;6.63;;;;;;;8.28;100.00;101874.38;4987850;28;20114;-79
2023/02/03 02:08:04;;;;;;;11.82;6.05;;;;;;;8.33;100.00;101868.88;4995537;28;20054;-79
2023/02/03 02:10:33;;;;;;;19.67;7.68;;;;;;;8.26;100.00;101850.19;4986540;28;20512;-80
2023/02/03 02:13:05;;;;;;;17.50;6.57;;;;;;;8.25;100.00;101845.91;4991740;28;20057;-79
2023/02/03 02:15:54;;;;;;;14.45;6.68;;;;;;;8.29;100.00;101864.78;4988376;28;20054;-80
2023/02/03 02:18:42;;;;;;;13.88;6.38;;;;;;;8.24;100.00;101870.31;4987650;28;20256;-79
2023/02/03 02:21:35;;;;;;;10.50;6.13;;;;;;;8.27;100.00;101870.09;4995781;28;20518;-78
2023/02/03 02:24:50;;;;;;;9.70;5.70;;;;;;;8.29;100.00;101867.38;4983501;28;20130;-79
2023/02/03 02:28:00;;;;;;;12.75;6.18;;;;;;;8.23;100.00;101868.66;4989104;28;20056;-78
2023/02/03 02:30:55;;;;;;;16.75;6.07;;;;;;;8.18;100.00;101839.47;4984135;28;20521;-77
2023/02/03 02:33:44;;;;;;;15.77;6.70;;;;;;;8.27;100.00;101857.06;4983943;28;20138;-79
2023/02/03 02:36:24;;;;;;;11.63;6.47;;;;;;;8.17;100.00;101837.81;4989076;28;20100;-80
2023/02/03 02:39:02;;;;;;;13.38;6.35;;;;;;;8.18;100.00;101844.69;4991451;28;20062;-78
2023/02/03 02:41:43;;;;;;;13.95;7.43;;;;;;;8.25;100.00;101845.09;4995845;28;20042;-79
2023/02/03 02:44:21;;;;;;;20.20;9.68;;;;;;;8.22;100.00;101821.84;4983647;28;20109;-79
2023/02/03 02:46:54;;;;;;;16.42;9.68;;;;;;;8.22;100.00;101816.63;4983554;28;20129;-78
2023/02/03 02:49:27;;;;;;;16.38;7.28;;;;;;;8.20;100.00;101826.31;4991028;28;20065;-77
2023/02/03 02:51:59;;;;;;;13.32;8.00;;;;;;;8.16;100.00;101817.91;4988013;28;20085;-80
2023/02/03 02:54:42;;;;;;;18.25;7.68;;;;;;;8.20;100.00;101811.50;4985348;28;20058;-78
2023/02/03 02:57:10;;;;;;;;;;;;;;;8.25;100.00;101835.47;4993878;28;20050;-80
2023/02/03 02:59:39;;;;;;;15.43;7.45;;;;;;;8.26;100.00;101836.31;4997721;28;20001;-78
2023/02/03 03:02:06;;;;;;;13.52;8.68;;;;;;;8.22;100.00;101846.13;5000699;28;20055;-79
2023/02/03 03:04:36;;;;;;;17.63;6.43;;;;;;;8.25;100.00;101842.47;5001562;28;20069;-80
2023/02/03 03:07:13;;;;;;;15.75;8.35;;;;;;;8.25;100.00;101835.47;4989716;28;20063;-81
2023/02/03 03:09:46;;;;;;;15.07;6.85;;;;;;;8.27;100.00;101840.59;4982112;28;20058;-81
2023/02/03 03:12:17;;;;;;;19.42;7.85;;;;;;;8.24;100.00;101839.03;4986381;28;20070;-80
2023/02/03 03:14:56;;;;;;;13.60;7.68;;;;;;;8.21;100.00;101831.44;4994525;28;20542;-80
2023/02/03 03:17:26;;;;;;;15.30;7.32;;;;;;;8.28;100.00;101832.66;4994246;28;20510;-77
2023/02/03 03:19:58;;;;;;;16.17;7.15;;;;;;;8.29;100.00;101821.28;4986612;28;20424;-80
2023/02/03 03:22:33;;;;;;;10.65;6.47;;;;;;;8.26;100.00;101812.84;4995735;28;20386;-79
2023/02/03 03:25:10;;;;;;;12.15;6.93;;;;;;;8.27;100.00;101814.50;4997541;28;20054;-80
2023/02/03 03:27:42;;;;;;;13.27;6.50;;;;;;;8.25;100.00;101809.41;4989518;28;20145;-79
2023/02/03 03:30:15;;;;;;;13.70;6.80;;;;;;;8.29;100.00;101816.06;4982550;28;20066;-77
2023/02/03 03:32:42;;;;;;;12.90;6.35;;;;;;;8.29;100.00;101818.66;4990132;28;20048;-78
2023/02/03 03:35:11;;;;;;;12.63;6.03;;;;;;;8.25;100.00;101822.44;4997721;28;20050;-79
2023/02/03 03:37:45;;;;;;;14.70;6.20;;;;;;;8.26;100.00;101837.16;4993599;28;20063;-80
2023/02/03 03:40:18;;;;;;;14.43;7.20;;;;;;;8.25;100.00;101822.44;4987092;28;20089;-79
2023/02/03 03:42:53;;;;;;;15.30;6.97;;;;;;;8.33;100.00;101824.53;4990980;28;20046;-77
2023/02/03 03:45:28;;;;;;;11.45;6.68;;;;;;;8.27;100.00;101817.94;4994527;28;20050;-78
2023/02/03 03:47:59;;;;;;;16.33;6.97;;;;;;;8.23;100.00;101811.28;4998428;28;20116;-81
2023/02/03 03:50:32;;;;;;;11.05;6.82;;;;;;;8.25;100.00;101825.06;4997008;28;20438;-81
2023/02/03 03:53:05;;;;;;;15.52;7.07;;;;;;;8.26;100.00;101813.69;4979429;28;20058;-80
2023/02/03 03:55:39;;;;;;;18.42;8.13;;;;;;;8.27;100.00;101823.16;4981516;28;20105;-81
2023/02/03 03:58:10;;;;;;;23.15;10.02;;;;;;;8.26;99.91;101820.66;4999957;28;20046;-78
2023/02/03 04:00:40;;;;;;;14.48;7.45;;;;;;;8.30;100.00;101822.09;4998551;28;20097;-79
2023/02/03 04:03:13;;;;;;;11.15;6.20;;;;;;;8.31;100.00;101829.00;4984691;28;20054;-79
2023/02/03 04:05:43;;;;;;;16.10;8.63;;;;;;;8.29;99.69;101834.31;4988007;28;20128;-79
2023/02/03 04:08:11;;;;;;;23.50;10.40;;;;;;;8.31;99.64;101829.81;4998182;28;20082;-80
2023/02/03 04:10:42;;;;;;;17.73;8.88;;;;;;;8.29;99.50;101826.50;4997102;28;20061;-79
2023/02/03 04:13:11;;;;;;;18.10;7.80;;;;;;;8.23;99.63;101811.28;4989697;28;20318;-79
2023/02/03 04:15:42;;;;;;;15.82;6.45;;;;;;;8.31;99.41;101813.34;4987464;28;20442;-78
2023/02/03 04:18:14;;;;;;;12.25;6.97;;;;;;;8.28;99.59;101806.56;4988349;28;20514;-78
2023/02/03 04:20:51;;;;;;;11.30;6.10;;;;;;;8.25;99.72;101798.16;4985924;28;20046;-80
2023/02/03 04:23:31;;;;;;;18.00;8.38;;;;;;;8.22;99.60;101799.19;4995957;28;20058;-78
2023/02/03 04:26:05;;;;;;;12.70;6.75;;;;;;;8.29;99.35;101800.41;4987848;28;20557;-80
2023/02/03 04:28:32;;;;;;;15.05;7.07;;;;;;;8.28;99.52;101827.44;4988121;28;20429;-82
2023/02/03 04:31:03;;;;;;;12.77;5.78;;;;;;;8.24;99.26;101814.72;4998945;28;20488;-79
2023/02/03 04:33:30;;;;;;;14.07;6.18;;;;;;;8.26;99.47;101807.63;4981185;28;20491;-80
2023/02/03 04:35:58;;;;;;;11.65;6.07;;;;;;;8.32;99.39;101805.44;4979531;28;20151;-80
2023/02/03 04:41:25;;;;;;;15.02;7.25;;;;;;;8.25;99.31;101798.16;4994223;28;20060;-81
2023/02/03 04:44:00;;;;;;;10.50;6.32;;;;;;;8.25;99.07;101801.59;4994684;28;20051;-77
2023/02/03 04:46:27;;;;;;;16.80;6.30;;;;;;;8.17;99.57;101803.09;4992536;28;20058;-77
2023/02/03 04:48:54;;;;;;;12.63;5.47;;;;;;;8.34;99.42;101827.97;4980551;28;20140;-79
2023/02/03 04:51:27;;;;;;;11.63;6.05;;;;;;;8.30;99.36;101822.09;4993475;28;20549;-78
2023/02/03 04:57:26;;;;;;;;;;;;;;;;;;;;;
2023/02/03 05:07:00;;;;;;;9.52;5.00;;;;;;;8.18;99.36;101789.94;5041341;28;20041;-78
2023/02/03 05:09:27;;;;;;;16.17;5.20;;;;;;;8.31;99.78;101805.53;5101794;23;20140;-80
2023/02/03 05:11:58;;;;;;;10.65;4.93;;;;;;;8.32;99.32;101775.88;5092649;28;20050;-79
2023/02/03 05:14:25;;;;;;;10.93;4.75;;;;;;;8.32;99.70;101795.00;5090398;28;20105;-78
2023/02/03 05:16:52;;;;;;;11.80;6.00;;;;;;;8.27;99.58;101791.88;5090474;28;20585;-79
2023/02/03 05:19:18;;;;;;;14.13;5.50;;;;;;;8.29;99.56;101781.34;5075716;28;20480;-78
2023/02/03 05:21:45;;;;;;;9.25;5.00;;;;;;;8.23;99.51;101766.97;5072642;28;20116;-79
2023/02/03 05:24:12;;;;;;;12.45;5.40;;;;;;;8.28;99.75;101761.41;5065581;28;20106;-78
2023/02/03 05:26:38;;;;;;;14.18;5.70;;;;;;;8.26;99.76;101774.56;5068779;28;20127;-78
2023/02/03 05:29:06;;;;;;;15.88;5.70;;;;;;;8.26;99.65;101764.13;5070721;28;20072;-79
2023/02/03 05:31:33;;;;;;;12.88;4.60;;;;;;;8.25;99.91;101783.34;5066205;28;20088;-78
2023/02/03 05:34:00;;;;;;;9.90;4.63;;;;;;;8.27;99.79;101778.84;5070984;28;20053;-78
2023/02/03 05:36:26;;;;;;;10.77;4.55;;;;;;;8.25;99.82;101778.13;5066744;28;20124;-78
2023/02/03 05:38:53;;;;;;;10.93;5.10;;;;;;;8.24;99.68;101773.00;5073685;28;20106;-79
2023/02/03 05:44:04;;;;;;;7.80;4.18;;;;;;;8.29;99.19;101779.56;5059123;28;20056;-79
2023/02/03 05:46:32;;;;;;;11.30;4.68;;;;;;;8.27;99.15;101778.84;5061883;28;20060;-79
2023/02/03 05:48:58;;;;;;;9.60;4.20;;;;;;;8.29;98.99;101779.56;5076985;28;20065;-79
2023/02/03 05:51:25;;;;;;;9.10;4.32;;;;;;;8.32;99.06;101795.00;5068211;28;20053;-78
2023/02/03 05:53:52;;;;;;;12.05;4.40;;;;;;;8.31;98.73;101772.44;5060992;28;20116;-79
2023/02/03 05:56:19;;;;;;;11.68;4.25;;;;;;;8.30;98.57;101783.81;5053213;28;20281;-80
2023/02/03 05:58:46;;;;;;;11.07;4.13;;;;;;;8.30;98.37;101783.00;5050969;28;20555;-77
2023/02/03 06:01:12;;;;;;;10.68;4.28;;;;;;;8.32;98.35;101801.97;5061806;28;20084;-80
2023/02/03 06:03:40;;;;;;;10.43;3.90;;;;;;;8.36;98.18;101802.59;5045565;28;20083;-80
2023/02/03 06:06:07;;;;;;;11.27;3.72;;;;;;;8.37;97.73;101809.50;5051598;28;20481;-79
2023/02/03 06:08:34;;;;;;;9.90;4.45;;;;;;;8.32;97.69;101810.66;5048668;28;20084;-80
2023/02/03 06:11:00;;;;;;;8.73;3.67;;;;;;;8.37;97.49;101801.66;5058102;28;20108;-80
2023/02/03 06:13:28;;;;;;;8.57;3.75;;;;;;;8.35;97.58;101793.13;5050814;28;20132;-80
2023/02/03 06:15:55;;;;;;;11.27;3.80;;;;;;;8.38;97.28;101783.28;5046547;28;20047;-80
2023/02/03 06:18:22;;;;;;;15.43;3.88;;;;;;;8.39;96.91;101805.81;5043713;28;20045;-79
2023/02/03 06:20:50;;;;;;;8.75;3.88;;;;;;;8.44;96.80;101808.09;5042141;28;20081;-80
2023/02/03 06:23:17;;;;;;;5.75;3.10;;;;;;;8.42;96.64;101812.59;5038677;28;20128;-78
2023/02/03 06:25:44;;;;;;;8.60;3.95;;;;;;;8.37;96.99;101791.22;5044068;28;20111;-75
2023/02/03 06:28:11;;;;;;;6.80;3.40;;;;;;;8.36;97.19;101792.19;5045050;28;20101;-76
2023/02/03 06:30:38;;;;;;;8.55;3.55;;;;;;;8.39;96.98;101784.13;5032884;28;20125;-78
2023/02/03 06:33:05;;;;;;;10.43;3.42;;;;;;;8.38;97.22;101792.91;5041305;28;20143;-78
2023/02/03 06:35:31;;;;;;;13.20;3.78;;;;;;;8.36;97.28;101790.41;5041066;28;20080;-78
2023/02/03 06:37:59;;;;;;;10.57;3.63;;;;;;;8.35;97.31;101793.97;5045061;28;20099;-79
2023/02/03 06:40:26;;;;;;;9.50;3.53;;;;;;;8.36;97.52;101794.78;5056972;28;20481;-79
2023/02/03 06:42:52;;;;;;;9.25;3.60;;;;;;;8.39;97.18;101799.78;5047452;28;20124;-79
2023/02/03 06:45:19;;;;;;;11.23;5.93;;;;;;;8.35;97.72;101811.38;5028624;28;20128;-78
2023/02/03 06:47:46;;;;;;;6.32;3.50;;;;;;;8.35;97.70;101808.78;5051774;28;20476;-80
2023/02/03 06:50:15;;;;;;;8.68;3.88;;;;;;;8.38;97.68;101792.91;5051107;28;20108;-78
2023/02/03 06:52:41;;;;;;;10.18;4.13;;;;;;;8.37;97.45;101786.00;5022666;28;20487;-79
2023/02/03 06:55:10;;;;;;;13.02;4.60;;;;;;;8.38;97.33;101796.34;5045415;28;20132;-80
2023/02/03 06:57:43;;;;;;;5.63;3.30;;;;;;;8.36;97.54;101790.41;5055080;28;20053;-80
2023/02/03 07:00:11;;;;;;;6.40;2.80;;;;;;;8.31;97.74;101793.31;5045535;28;20131;-79
2023/02/03 07:02:39;;;;;;;14.30;4.07;;;;;;;8.38;97.47;101774.63;5019008;28;20049;-79
2023/02/03 07:05:06;;;;;;;6.93;3.30;;;;;;;8.39;97.44;101779.75;5041706;28;20132;-78
2023/02/03 07:07:33;;;;;;;7.30;3.20;;;;;;;8.38;97.36;101783.28;5039342;28;20144;-80
2023/02/03 07:09:59;;;;;;;9.25;3.50;;;;;;;8.34;97.58;101791.47;5055619;28;20103;-79
2023/02/03 07:12:28;;;;;;;9.88;3.15;;;;;;;8.33;98.06;101788.00;5054751;28;20095;-79
2023/02/03 07:14:54;;;;;;;12.32;3.80;;;;;;;8.36;97.64;101781.75;5055268;28;20045;-79
2023/02/03 07:17:21;;;;;;;10.73;3.47;;;;;;;8.34;97.71;101791.47;5046761;28;20501;-79
2023/02/03 07:19:47;;;;;;;9.00;3.90;;;;;;;8.33;98.12;101793.22;5037846;28;20057;-78
2023/02/03 07:22:14;;;;;;;7.78;3.55;;;;;;;8.34;97.71;101787.06;5046641;28;20117;-79
2023/02/03 07:24:40;;;;;;;7.55;3.50;;;;;;;8.37;97.72;101799.06;5027559;28;20725;-80
2023/02/03 07:27:07;;;;;;;8.05;3.13;;;;;;;8.40;97.89;101793.63;5035331;28;20129;-78
2023/02/03 07:29:41;;;;;;;9.75;3.50;;;;;;;8.38;97.85;101796.34;5042006;28;20076;-79
2023/02/03 07:32:08;;;;;;;7.25;3.17;;;;;;;8.42;97.65;101791.72;5041920;28;20075;-77
2023/02/03 07:34:47;;;;;;;9.68;3.78;;;;;;;8.44;97.46;101806.31;5034810;28;20104;-78
2023/02/03 07:37:14;;;;;;;11.52;3.88;;;;;;;8.40;96.98;101806.66;5050378;28;20080;-78
2023/02/03 07:39:41;;;;;;;12.98;3.72;;;;;;;8.45;96.87;101794.09;5046234;28;20063;-79
2023/02/03 07:42:07;;;;;;;11.98;3.55;;;;;;;8.45;96.87;101797.56;5044391;28;20045;-78
2023/02/03 07:44:39;;;;;;;13.48;3.80;;;;;;;8.46;96.73;101801.00;5037743;28;20128;-77
2023/02/03 07:47:05;;;;;;;8.10;3.65;;;;;;;8.49;96.45;101783.34;5037763;28;20045;-78
2023/02/03 07:49:32;;;;;;;8.38;3.08;;;;;;;8.48;96.44;101793.88;5020743;28;20136;-80
2023/02/03 07:51:59;;;;;;;8.20;3.97;;;;;;;8.54;96.00;101799.44;5043831;28;20483;-79
2023/02/03 07:54:25;;;;;;;7.40;3.90;;;;;;;8.53;95.81;101810.81;5049841;28;20480;-80
2023/02/03 07:56:53;;;;;;;11.00;4.13;;;;;;;8.54;95.72;101806.44;5043412;28;20558;-80
2023/02/03 07:59:19;;;;;;;8.52;3.55;;;;;;;8.54;95.90;101806.44;5036717;28;20087;-79
2023/02/03 08:01:47;;;;;;;6.53;3.63;;;;;;;8.54;95.81;101809.06;5039896;28;20102;-79
2023/02/03 08:04:15;;;;;;;7.05;2.88;;;;;;;8.56;95.73;101804.56;5053877;28;20128;-79
2023/02/03 08:06:42;;;;;;;9.95;3.33;;;;;;;8.56;95.65;101810.59;5049635;28;20052;-79
2023/02/03 08:09:08;;;;;;;7.22;2.95;;;;;;;8.55;95.64;101802.88;5041245;28;20116;-78
2023/02/03 08:11:35;;;;;;;7.85;2.58;;;;;;;8.57;95.14;101809.66;5044928;28;20053;-79
2023/02/03 08:14:01;;;;;;;7.93;2.78;;;;;;;8.61;95.18;101816.31;5053974;28;20131;-78
2023/02/03 08:16:28;;;;;;;7.22;3.05;;;;;;;8.65;95.20;101811.69;5037292;28;20092;-79
2023/02/03 08:18:56;;;;;;;11.15;3.03;;;;;;;8.63;94.93;101818.81;5047627;28;20108;-79
2023/02/03 08:21:25;;;;;;;6.68;3.17;;;;;;;8.69;94.59;101820.97;5049060;28;20060;-78
2023/02/03 08:23:51;;;;;;;5.50;3.10;;;;;;;8.63;94.76;101808.38;5054680;28;20055;-77
2023/02/03 08:26:18;;;;;;;9.85;3.20;;;;;;;8.60;94.91;101832.09;5044380;28;20136;-79
2023/02/03 08:28:48;;;;;;;6.97;3.25;;;;;;;8.57;95.47;101845.34;5048834;28;20537;-78
2023/02/03 08:31:15;;;;;;;6.68;2.80;;;;;;;8.55;95.97;101845.47;5032237;28;20041;-79
2023/02/03 08:33:42;;;;;;;7.85;3.67;;;;;;;8.49;96.18;101851.16;5030194;28;20076;-79
2023/02/03 08:36:11;;;;;;;9.52;3.30;;;;;;;8.42;97.00;101847.34;5042170;28;20052;-80
2023/02/03 08:38:38;;;;;;;9.27;3.85;;;;;;;8.36;98.24;101860.81;5042241;28;20045;-79
2023/02/03 08:41:08;;;;;;;8.35;3.58;;;;;;;8.34;98.67;101861.88;5043241;28;20097;-78
2023/02/03 08:43:35;;;;;;;9.93;3.90;;;;;;;8.37;98.69;101861.66;5046651;28;20045;-80
2023/02/03 08:46:03;;;;;;;7.18;3.28;;;;;;;8.38;98.79;101869.38;5052895;28;20433;-80
2023/02/03 08:48:29;;;;;;;9.80;3.70;;;;;;;8.41;98.75;101868.31;5056737;28;20052;-79
2023/02/03 08:50:56;;;;;;;11.10;4.07;;;;;;;8.46;98.42;101876.63;5054996;28;20056;-78
2023/02/03 08:53:24;;;;;;;6.32;2.75;;;;;;;8.52;97.89;101876.16;5039706;28;20057;-79
2023/02/03 08:55:51;;;;;;;8.20;3.42;;;;;;;8.49;97.58;101859.00;5049830;28;20085;-79
2023/02/03 08:58:18;;;;;;;6.43;3.42;;;;;;;8.54;97.30;101863.84;5052478;28;20091;-78
2023/02/03 09:00:48;;;;;;;12.35;3.97;;;;;;;8.60;96.71;101843.34;5051011;28;20053;-81
2023/02/03 09:03:15;;;;;;;10.13;3.90;;;;;;;8.56;96.34;101848.91;5049177;28;20046;-77
2023/02/03 09:05:41;;;;;;;6.05;3.38;;;;;;;8.62;96.18;101849.28;5036999;28;20160;-81
2023/02/03 09:08:08;;;;;;;7.03;3.40;;;;;;;8.62;96.09;101864.09;5040240;28;20085;-80
2023/02/03 09:10:36;;;;;;;7.07;3.38;;;;;;;8.60;96.39;101860.78;5032699;28;20124;-79
2023/02/03 09:13:03;;;;;;;7.50;3.90;;;;;;;8.59;96.28;101866.94;5035710;28;20104;-79
2023/02/03 09:15:31;;;;;;;6.28;2.97;;;;;;;8.57;96.96;101871.44;5035766;28;20080;-80
2023/02/03 09:17:57;;;;;;;15.65;4.40;;;;;;;8.53;97.23;101860.41;5039329;28;20045;-80
2023/02/03 09:20:27;;;;;;;5.97;3.42;;;;;;;8.49;97.48;101856.38;5038791;28;20077;-80
2023/02/03 09:22:54;;;;;;;8.60;4.13;;;;;;;8.41;98.12;101839.63;5046325;28;20551;-80
2023/02/03 09:25:21;;;;;;;6.70;3.95;;;;;;;8.43;98.63;101854.22;5034722;28;20045;-80
2023/02/03 09:27:49;;;;;;;11.82;5.05;;;;;;;8.40;98.43;101848.38;5043191;28;20412;-79
2023/02/03 09:30:17;;;;;;;8.18;4.47;;;;;;;8.45;99.20;101870.59;5038829;28;20048;-80
2023/02/03 09:32:47;;;;;;;9.85;4.10;;;;;;;8.42;99.82;101868.19;5042830;28;20109;-77
2023/02/03 09:35:14;;;;;;;10.05;4.32;;;;;;;8.38;99.82;101851.09;5044036;28;20136;-80
2023/02/03 09:37:41;;;;;;;9.77;4.60;;;;;;;8.41;100.00;101866.53;5052544;28;20542;-80
2023/02/03 09:40:18;;;;;;;14.82;4.90;;;;;;;8.40;100.00;101882.28;5042647;28;20069;-80
2023/02/03 09:43:02;;;;;;;6.32;3.42;;;;;;;8.35;100.00;101855.72;5036516;28;20387;-79
2023/02/03 09:45:30;;;;;;;10.35;4.43;;;;;;;8.34;100.00;101869.69;5026834;28;20053;-78
2023/02/03 09:48:03;;;;;;;8.25;4.22;;;;;;;8.34;100.00;101887.94;5026459;28;20046;-78
2023/02/03 09:50:33;;;;;;;9.05;4.75;;;;;;;8.24;100.00;101854.69;5035624;28;20050;-80
2023/02/03 09:53:05;;;;;;;14.85;4.93;;;;;;;8.26;100.00;101863.22;5027130;28;20054;-80
2023/02/03 09:55:36;;;;;;;10.10;4.63;;;;;;;8.28;100.00;101873.53;5068632;28;20072;-80
2023/02/03 09:58:11;;;;;;;11.30;4.95;;;;;;;8.23;100.00;101879.09;5070425;28;20063;-79
2023/02/03 10:00:43;;;;;;;11.45;4.68;;;;;;;8.21;100.00;101857.50;5056615;28;20053;-81
2023/02/03 10:03:20;;;;;;;11.07;5.05;;;;;;;8.19;100.00;101872.44;5042377;28;20045;-80
2023/02/03 10:06:06;;;;;;;9.27;5.07;;;;;;;8.12;100.00;101873.81;5033021;28;20095;-80
2023/02/03 10:08:56;;;;;;;11.88;5.70;;;;;;;8.11;100.00;101890.38;5041130;28;20053;-78
2023/02/03 10:11:34;;;;;;;14.27;6.47;;;;;;;8.07;100.00;101890.72;5045936;28;20045;-81
2023/02/03 10:14:17;;;;;;;11.52;7.07;;;;;;;8.04;100.00;101889.16;5043275;28;20118;-80
2023/02/03 10:17:03;;;;;;;17.15;9.02;;;;;;;8.07;100.00;101903.75;5038708;28;20103;-80
2023/02/03 10:19:41;;;;;;;13.05;7.95;;;;;;;8.04;100.00;101899.59;5039892;28;20088;-79
2023/02/03 10:22:14;;;;;;;19.67;8.77;;;;;;;8.07;100.00;101908.97;5033194;28;20049;-79
2023/02/03 10:24:44;;;;;;;;;;;;;;;8.05;100.00;101908.22;5037240;28;20122;-79
2023/02/03 10:27:17;;;;;;;14.35;8.75;;;;;;;8.01;100.00;101909.44;5033461;28;19947;-79
2023/02/03 10:29:49;;;;;;;15.05;8.90;;;;;;;7.99;100.00;101912.13;5029334;28;20052;-80
2023/02/03 10:32:15;;;;;;;13.80;8.73;;;;;;;7.99;100.00;101912.13;5032896;28;20454;-78
2023/02/03 10:34:47;;;;;;;16.80;9.05;;;;;;;7.94;100.00;101909.03;5032007;28;20089;-78
2023/02/03 10:37:25;;;;;;;19.55;8.52;;;;;;;7.91;100.00;101893.59;5022426;28;20041;-78
2023/02/03 10:39:54;;;;;;;11.20;6.30;;;;;;;7.86;100.00;101900.91;5040942;28;20574;-79
2023/02/03 10:42:22;;;;;;;12.18;6.30;;;;;;;7.86;100.00;101898.28;5045696;28;20137;-78
2023/02/03 10:44:54;;;;;;;11.43;6.10;;;;;;;7.89;100.00;101901.53;5047943;28;20052;-78
2023/02/03 10:47:25;;;;;;;12.38;5.93;;;;;;;7.94;100.00;101893.38;5033810;28;20053;-76
2023/02/03 10:49:53;;;;;;;16.83;6.10;;;;;;;7.91;100.00;101906.63;5031187;28;20092;-77
2023/02/03 10:52:32;;;;;;;13.07;6.22;;;;;;;7.92;100.00;101903.91;5023821;28;20129;-78
2023/02/03 10:54:59;;;;;;;12.20;6.32;;;;;;;7.91;100.00;101888.38;5033345;28;20110;-79
2023/02/03 10:57:29;;;;;;;15.48;6.40;;;;;;;7.91;100.00;101898.81;5033851;28;20042;-77
2023/02/03 11:00:09;;;;;;;10.13;5.97;;;;;;;7.91;100.00;101884.00;5033473;28;20045;-79
2023/02/03 11:02:36;;;;;;;10.63;6.47;;;;;;;7.95;100.00;101876.81;5030613;28;20061;-79
2023/02/03 11:05:17;;;;;;;11.73;7.38;;;;;;;7.96;100.00;101891.50;5039559;28;20177;-80
2023/02/03 11:07:45;;;;;;;11.80;6.38;;;;;;;7.96;100.00;101897.53;5036985;28;20137;-78
2023/02/03 11:10:31;;;;;;;11.38;7.43;;;;;;;8.01;100.00;101884.19;5031282;28;20053;-77
2023/02/03 11:13:18;;;;;;;12.82;7.20;;;;;;;8.05;100.00;101898.63;5031439;28;20495;-77
2023/02/03 11:15:52;;;;;;;16.45;8.48;;;;;;;8.12;100.00;101893.84;5033525;28;20431;-79
2023/02/03 11:18:31;;;;;;;12.77;9.13;;;;;;;8.20;100.00;101887.13;5026219;28;20042;-79
2023/02/03 11:21:06;;;;;;;18.13;10.90;;;;;;;8.25;100.00;101892.84;5029283;28;20124;-80
2023/02/03 11:23:34;;;;;;;21.30;11.45;;;;;;;8.31;100.00;101871.56;5031610;28;20080;-80
2023/02/03 11:26:10;;;;;;;18.90;11.60;;;;;;;8.37;100.00;101877.28;5032164;28;20128;-80
2023/02/03 11:28:37;;;;;;;15.07;10.45;;;;;;;8.39;100.00;101876.25;5028153;28;20049;-79
2023/02/03 11:31:05;;;;;;;18.13;11.60;;;;;;;8.47;100.00;101867.88;5039662;28;20045;-78
2023/02/03 11:33:32;;;;;;;16.95;12.25;;;;;;;8.53;100.00;101865.63;5048296;28;20088;-80
2023/02/03 11:36:01;;;;;;;19.50;11.13;;;;;;;8.54;100.00;101846.41;5042374;28;20403;-79
2023/02/03 11:38:30;;;;;;;19.65;11.38;;;;;;;8.50;100.00;101865.88;5036955;28;20471;-80
2023/02/03 11:41:00;;;;;;;18.75;11.45;;;;;;;8.50;100.00;101884.13;5030329;28;20102;-78
2023/02/03 11:43:27;;;;;;;24.83;13.00;;;;;;;8.51;100.00;101887.53;5034705;28;20050;-77
2023/02/03 11:46:00;;;;;;;23.38;13.63;;;;;;;8.57;100.00;101884.47;5040627;28;20041;-79
2023/02/03 11:48:32;;;;;;;19.42;13.18;;;;;;;8.51;100.00;101882.31;5039697;28;20065;-79
2023/02/03 11:51:08;;;;;;;19.10;12.73;;;;;;;8.55;100.00;101899.41;5032612;28;20059;-77
2023/02/03 11:53:55;;;;;;;18.92;13.30;;;;;;;8.60;100.00;101902.53;5032218;28;20164;-79
2023/02/03 11:56:31;;;;;;;17.40;12.60;;;;;;;8.68;100.00;101900.19;5034983;28;20041;-79
2023/02/03 11:59:25;;;;;;;17.67;10.88;;;;;;;8.69;100.00;101901.03;5032402;28;20148;-79